createdAt,value
2018-02-07T00:00:34.554Z,0.00
2018-02-07T00:01:34.543Z,0.00
2018-02-07T00:02:34.528Z,0.00
2018-02-07T00:03:34.513Z,0.00
2018-02-07T00:04:34.501Z,0.00
2018-02-07T00:05:34.486Z,0.00
2018-02-07T00:06:34.469Z,0.00
2018-02-07T00:07:34.483Z,0.00
2018-02-07T00:08:34.448Z,0.00
2018-02-07T00:09:34.444Z,0.00
2018-02-07T00:10:34.416Z,0.00
2018-02-07T00:11:34.405Z,0.00
2018-02-07T00:12:34.392Z,0.00
2018-02-07T00:13:34.375Z,0.00
2018-02-07T00:14:34.361Z,0.00
2018-02-07T00:15:34.349Z,0.00
2018-02-07T00:16:34.335Z,0.00
2018-02-07T00:17:34.318Z,0.00
2018-02-07T00:18:34.307Z,0.00
2018-02-07T00:19:34.293Z,0.00
2018-02-07T00:20:34.282Z,0.00
2018-02-07T00:21:34.269Z,0.00
2018-02-07T00:22:34.278Z,0.00
2018-02-07T00:23:34.237Z,0.00
2018-02-07T00:24:34.224Z,0.00
2018-02-07T00:25:34.211Z,0.00
2018-02-07T00:26:34.196Z,0.00
2018-02-07T00:27:34.184Z,0.00
2018-02-07T00:28:34.173Z,0.00
2018-02-07T00:29:34.161Z,0.00
2018-02-07T00:30:34.139Z,0.00
2018-02-07T00:31:34.134Z,0.00
2018-02-07T00:32:34.121Z,0.00
2018-02-07T00:33:34.099Z,0.00
2018-02-07T00:34:34.093Z,0.00
2018-02-07T00:35:34.070Z,0.00
2018-02-07T00:36:34.050Z,0.00
2018-02-07T00:37:34.047Z,0.00
2018-02-07T00:38:34.040Z,0.00
2018-02-07T00:39:34.018Z,0.00
2018-02-07T00:40:33.996Z,0.00
2018-02-07T00:41:33.986Z,0.00
2018-02-07T00:42:34.008Z,0.00
2018-02-07T00:43:33.963Z,0.00
2018-02-07T00:44:33.946Z,0.00
2018-02-07T00:45:33.932Z,0.00
2018-02-07T00:46:33.920Z,0.00
2018-02-07T00:47:33.907Z,0.00
2018-02-07T00:48:33.899Z,0.00
2018-02-07T00:49:33.876Z,0.00
2018-02-07T00:50:33.861Z,0.00
2018-02-07T00:51:33.849Z,0.00
2018-02-07T00:52:33.830Z,0.00
2018-02-07T00:53:33.821Z,0.00
2018-02-07T00:54:33.811Z,0.00
2018-02-07T00:55:33.821Z,0.00
2018-02-07T00:56:33.780Z,0.00
2018-02-07T00:57:33.766Z,0.00
2018-02-07T00:58:33.742Z,0.00
2018-02-07T00:59:33.737Z,0.00
2018-02-07T01:00:33.721Z,0.00
2018-02-07T01:01:33.706Z,0.00
2018-02-07T01:02:33.693Z,0.00
2018-02-07T01:03:33.682Z,0.00
2018-02-07T01:04:33.667Z,0.00
2018-02-07T01:05:33.653Z,0.00
2018-02-07T01:06:33.636Z,0.00
2018-02-07T01:07:33.623Z,0.00
2018-02-07T01:08:33.612Z,0.00
2018-02-07T01:09:33.607Z,0.00
2018-02-07T01:10:33.583Z,0.00
2018-02-07T01:11:33.567Z,0.00
2018-02-07T01:12:33.549Z,0.00
2018-02-07T01:13:33.537Z,0.00
2018-02-07T01:14:33.525Z,0.00
2018-02-07T01:15:33.514Z,0.00
2018-02-07T01:16:33.499Z,0.00
2018-02-07T01:17:33.482Z,0.00
2018-02-07T01:18:33.469Z,0.00
2018-02-07T01:19:33.453Z,0.00
2018-02-07T01:20:33.440Z,0.00
2018-02-07T01:21:33.423Z,0.00
2018-02-07T01:22:33.410Z,0.00
2018-02-07T01:23:33.397Z,0.00
2018-02-07T01:24:33.393Z,0.00
2018-02-07T01:25:33.370Z,0.00
2018-02-07T01:26:33.354Z,0.00
2018-02-07T01:27:33.341Z,0.00
2018-02-07T01:28:33.334Z,0.00
2018-02-07T01:29:33.315Z,0.00
2018-02-07T01:30:33.297Z,0.00
2018-02-07T01:31:33.283Z,0.00
2018-02-07T01:32:33.266Z,0.00
2018-02-07T01:33:33.253Z,0.00
2018-02-07T01:34:33.240Z,0.00
2018-02-07T01:35:33.227Z,0.00
2018-02-07T01:36:33.212Z,0.00
2018-02-07T01:37:33.197Z,0.00
2018-02-07T01:38:33.183Z,0.00
2018-02-07T01:39:33.172Z,0.00
2018-02-07T01:40:33.159Z,0.00
2018-02-07T01:41:33.141Z,0.00
2018-02-07T01:42:33.140Z,0.00
2018-02-07T01:43:33.115Z,0.00
2018-02-07T01:44:33.091Z,0.00
2018-02-07T01:45:33.084Z,0.00
2018-02-07T01:46:33.071Z,0.00
2018-02-07T01:47:33.077Z,0.00
2018-02-07T01:48:33.041Z,0.00
2018-02-07T01:49:33.028Z,0.00
2018-02-07T01:50:33.014Z,0.00
2018-02-07T01:51:32.999Z,0.00
2018-02-07T01:52:32.986Z,0.00
2018-02-07T01:53:32.972Z,0.00
2018-02-07T01:54:32.959Z,0.00
2018-02-07T01:55:32.945Z,0.00
2018-02-07T01:56:32.929Z,0.00
2018-02-07T01:57:32.918Z,0.00
2018-02-07T01:58:32.899Z,0.00
2018-02-07T01:59:32.907Z,0.00
2018-02-07T02:00:32.873Z,0.00
2018-02-07T02:01:32.856Z,0.00
2018-02-07T02:02:32.847Z,0.00
2018-02-07T02:03:32.827Z,0.00
2018-02-07T02:04:32.814Z,0.00
2018-02-07T02:05:32.798Z,0.00
2018-02-07T02:06:32.785Z,0.00
2018-02-07T02:07:32.780Z,0.00
2018-02-07T02:08:32.755Z,0.00
2018-02-07T02:09:32.745Z,0.00
2018-02-07T02:10:32.728Z,0.00
2018-02-07T02:11:32.716Z,0.00
2018-02-07T02:12:32.702Z,0.00
2018-02-07T02:13:32.681Z,0.00
2018-02-07T02:14:32.668Z,0.00
2018-02-07T02:15:32.654Z,0.00
2018-02-07T02:16:32.642Z,0.00
2018-02-07T02:17:32.626Z,0.00
2018-02-07T02:18:32.612Z,0.00
2018-02-07T02:19:32.600Z,0.00
2018-02-07T02:20:32.604Z,0.00
2018-02-07T02:21:32.570Z,0.00
2018-02-07T02:22:32.553Z,0.00
2018-02-07T02:23:32.540Z,0.00
2018-02-07T02:24:32.529Z,0.00
2018-02-07T02:25:32.512Z,0.00
2018-02-07T02:26:32.524Z,0.00
2018-02-07T02:27:32.482Z,0.00
2018-02-07T02:28:32.466Z,0.00
2018-02-07T02:29:32.454Z,0.00
2018-02-07T02:30:32.450Z,0.00
2018-02-07T02:31:32.426Z,0.00
2018-02-07T02:32:32.419Z,0.00
2018-02-07T02:33:32.390Z,0.00
2018-02-07T02:34:32.381Z,0.00
2018-02-07T02:35:32.370Z,0.00
2018-02-07T02:36:32.357Z,0.00
2018-02-07T02:37:32.340Z,0.00
2018-02-07T02:38:32.328Z,0.00
2018-02-07T02:39:32.314Z,0.00
2018-02-07T02:40:32.300Z,0.00
2018-02-07T02:41:32.285Z,0.00
2018-02-07T02:42:32.268Z,0.00
2018-02-07T02:43:32.255Z,0.00
2018-02-07T02:44:32.251Z,0.00
2018-02-07T02:45:32.226Z,0.00
2018-02-07T02:46:32.214Z,0.00
2018-02-07T02:47:32.206Z,0.00
2018-02-07T02:48:32.193Z,0.00
2018-02-07T02:49:32.170Z,0.00
2018-02-07T02:50:32.159Z,0.00
2018-02-07T02:51:32.143Z,0.00
2018-02-07T02:52:32.131Z,0.00
2018-02-07T02:53:32.117Z,0.00
2018-02-07T02:54:32.105Z,0.00
2018-02-07T02:55:32.087Z,0.00
2018-02-07T02:56:32.074Z,0.00
2018-02-07T02:57:32.058Z,0.00
2018-02-07T02:58:32.041Z,0.00
2018-02-07T02:59:32.030Z,0.00
2018-02-07T03:00:32.028Z,0.00
2018-02-07T03:01:32.003Z,0.00
2018-02-07T03:02:31.988Z,0.00
2018-02-07T03:03:31.973Z,0.00
2018-02-07T03:04:31.958Z,0.00
2018-02-07T03:05:31.946Z,0.00
2018-02-07T03:06:31.932Z,0.00
2018-02-07T03:07:31.918Z,0.00
2018-02-07T03:08:31.901Z,0.00
2018-02-07T03:09:31.887Z,0.00
2018-02-07T03:10:31.885Z,0.00
2018-02-07T03:11:31.882Z,0.00
2018-02-07T03:12:31.852Z,0.00
2018-02-07T03:13:31.874Z,0.00
2018-02-07T03:14:31.842Z,0.00
2018-02-07T03:15:31.807Z,0.00
2018-02-07T03:16:31.794Z,0.00
2018-02-07T03:17:31.777Z,0.00
2018-02-07T03:18:31.774Z,0.00
2018-02-07T03:19:31.753Z,0.00
2018-02-07T03:20:31.734Z,0.00
2018-02-07T03:21:31.790Z,0.00
2018-02-07T03:22:31.707Z,0.00
2018-02-07T03:23:31.695Z,0.00
2018-02-07T03:24:31.705Z,0.00
2018-02-07T03:25:31.668Z,0.00
2018-02-07T03:26:31.676Z,0.00
2018-02-07T03:27:31.640Z,0.00
2018-02-07T03:28:31.667Z,0.00
2018-02-07T03:29:31.609Z,0.00
2018-02-07T03:30:31.606Z,0.00
2018-02-07T03:31:31.649Z,0.00
2018-02-07T03:32:31.583Z,0.00
2018-02-07T03:33:31.554Z,0.00
2018-02-07T03:34:31.572Z,0.00
2018-02-07T03:35:31.527Z,0.00
2018-02-07T03:36:31.537Z,0.00
2018-02-07T03:37:31.499Z,0.00
2018-02-07T03:38:31.494Z,0.00
2018-02-07T03:39:31.470Z,0.00
2018-02-07T03:40:31.505Z,0.00
2018-02-07T03:41:31.447Z,0.00
2018-02-07T03:42:31.450Z,0.00
2018-02-07T03:43:31.425Z,0.00
2018-02-07T03:44:31.408Z,0.00
2018-02-07T03:45:31.411Z,0.00
2018-02-07T03:46:31.378Z,0.00
2018-02-07T03:47:31.378Z,0.00
2018-02-07T03:48:31.346Z,0.00
2018-02-07T03:49:31.334Z,0.00
2018-02-07T03:50:31.366Z,0.00
2018-02-07T03:51:31.326Z,0.00
2018-02-07T03:52:31.293Z,0.00
2018-02-07T03:53:31.280Z,0.00
2018-02-07T03:54:31.291Z,0.00
2018-02-07T03:55:31.251Z,0.00
2018-02-07T03:56:31.241Z,0.00
2018-02-07T03:57:31.223Z,0.00
2018-02-07T03:58:31.215Z,0.00
2018-02-07T03:59:31.199Z,0.00
2018-02-07T04:00:31.190Z,0.00
2018-02-07T04:01:31.168Z,0.00
2018-02-07T04:02:31.154Z,0.00
2018-02-07T04:03:31.174Z,0.00
2018-02-07T04:04:31.152Z,0.00
2018-02-07T04:05:31.113Z,0.00
2018-02-07T04:06:31.115Z,0.00
2018-02-07T04:07:31.089Z,0.00
2018-02-07T04:08:31.105Z,0.00
2018-02-07T04:09:31.059Z,0.00
2018-02-07T04:10:31.088Z,0.00
2018-02-07T04:11:31.032Z,0.00
2018-02-07T04:12:31.020Z,0.00
2018-02-07T04:13:31.034Z,0.00
2018-02-07T04:14:30.990Z,0.00
2018-02-07T04:15:31.011Z,0.00
2018-02-07T04:16:30.972Z,0.00
2018-02-07T04:17:30.938Z,0.00
2018-02-07T04:18:30.936Z,0.00
2018-02-07T04:19:30.923Z,0.00
2018-02-07T04:20:30.953Z,0.00
2018-02-07T04:21:30.891Z,0.00
2018-02-07T04:22:30.894Z,0.00
2018-02-07T04:23:30.866Z,0.00
2018-02-07T04:24:30.879Z,0.00
2018-02-07T04:25:30.840Z,0.00
2018-02-07T04:26:30.840Z,0.00
2018-02-07T04:27:30.814Z,0.00
2018-02-07T04:28:30.839Z,0.00
2018-02-07T04:29:30.804Z,0.00
2018-02-07T04:30:30.781Z,0.00
2018-02-07T04:31:30.763Z,0.00
2018-02-07T04:32:30.825Z,0.00
2018-02-07T04:33:30.734Z,0.00
2018-02-07T04:34:30.733Z,0.00
2018-02-07T04:35:30.714Z,0.00
2018-02-07T04:36:30.708Z,0.00
2018-02-07T04:37:30.709Z,0.00
2018-02-07T04:38:30.675Z,0.00
2018-02-07T04:39:30.649Z,0.00
2018-02-07T04:40:30.639Z,0.00
2018-02-07T04:41:30.717Z,0.00
2018-02-07T04:42:30.610Z,0.00
2018-02-07T04:43:30.616Z,0.00
2018-02-07T04:44:30.585Z,0.00
2018-02-07T04:45:30.570Z,0.00
2018-02-07T04:46:30.613Z,0.00
2018-02-07T04:47:30.573Z,0.00
2018-02-07T04:48:30.545Z,0.00
2018-02-07T04:49:30.517Z,0.00
2018-02-07T04:50:30.527Z,0.00
2018-02-07T04:51:30.495Z,0.00
2018-02-07T04:52:30.493Z,0.00
2018-02-07T04:53:30.462Z,0.00
2018-02-07T04:54:30.456Z,0.00
2018-02-07T04:55:30.437Z,0.00
2018-02-07T04:56:30.478Z,0.00
2018-02-07T04:57:30.411Z,0.00
2018-02-07T04:58:30.396Z,0.00
2018-02-07T04:59:30.388Z,0.00
2018-02-07T05:00:30.369Z,0.00
2018-02-07T05:01:30.354Z,0.00
2018-02-07T05:02:30.344Z,0.00
2018-02-07T05:03:30.331Z,0.00
2018-02-07T05:04:30.319Z,0.00
2018-02-07T05:05:30.325Z,0.00
2018-02-07T05:06:30.290Z,0.00
2018-02-07T05:07:30.289Z,0.00
2018-02-07T05:08:30.253Z,0.00
2018-02-07T05:09:30.273Z,0.00
2018-02-07T05:10:30.235Z,0.00
2018-02-07T05:11:30.264Z,0.00
2018-02-07T05:12:30.213Z,0.00
2018-02-07T05:13:30.238Z,0.00
2018-02-07T05:14:30.181Z,0.00
2018-02-07T05:15:30.165Z,0.00
2018-02-07T05:16:30.197Z,0.00
2018-02-07T05:17:30.206Z,0.00
2018-02-07T05:18:30.157Z,0.00
2018-02-07T05:19:30.135Z,0.00
2018-02-07T05:20:30.123Z,0.00
2018-02-07T05:21:30.110Z,0.00
2018-02-07T05:22:30.132Z,0.00
2018-02-07T05:23:30.086Z,0.00
2018-02-07T05:24:30.072Z,0.00
2018-02-07T05:25:30.056Z,0.00
2018-02-07T05:26:30.050Z,0.00
2018-02-07T05:27:30.788Z,0.00
2018-02-07T05:28:30.032Z,0.00
2018-02-07T05:29:29.992Z,0.00
2018-02-07T05:30:30.762Z,0.00
2018-02-07T05:31:30.008Z,0.00
2018-02-07T05:32:29.988Z,0.00
2018-02-07T05:33:29.959Z,0.00
2018-02-07T05:34:30.011Z,0.00
2018-02-07T05:35:29.913Z,0.00
2018-02-07T05:36:30.757Z,0.00
2018-02-07T05:37:30.756Z,0.00
2018-02-07T05:38:30.756Z,0.00
2018-02-07T05:39:29.938Z,0.00
2018-02-07T05:40:30.752Z,0.00
2018-02-07T05:41:29.888Z,0.00
2018-02-07T05:42:29.826Z,0.00
2018-02-07T05:43:29.935Z,0.00
2018-02-07T05:44:29.798Z,0.00
2018-02-07T05:45:29.790Z,0.00
2018-02-07T05:46:30.755Z,0.00
2018-02-07T05:47:29.778Z,0.00
2018-02-07T05:48:29.740Z,0.00
2018-02-07T05:49:29.749Z,0.00
2018-02-07T05:50:29.710Z,0.00
2018-02-07T05:51:29.722Z,0.00
2018-02-07T05:52:29.728Z,0.00
2018-02-07T05:53:29.728Z,0.00
2018-02-07T05:54:29.733Z,0.00
2018-02-07T05:55:29.697Z,0.00
2018-02-07T05:56:29.646Z,0.00
2018-02-07T05:57:29.653Z,0.00
2018-02-07T05:58:29.664Z,0.00
2018-02-07T05:59:29.624Z,0.00
2018-02-07T06:00:29.579Z,0.00
2018-02-07T06:01:29.559Z,0.00
2018-02-07T06:02:29.582Z,0.00
2018-02-07T06:03:30.344Z,0.00
2018-02-07T06:04:29.597Z,0.00
2018-02-07T06:05:29.580Z,0.00
2018-02-07T06:06:29.507Z,0.00
2018-02-07T06:07:29.513Z,0.00
2018-02-07T06:08:30.275Z,0.00
2018-02-07T06:09:29.469Z,0.00
2018-02-07T06:10:29.474Z,0.00
2018-02-07T06:11:29.496Z,0.00
2018-02-07T06:12:29.440Z,0.00
2018-02-07T06:13:29.451Z,4.00
2018-02-07T06:14:29.461Z,4.00
2018-02-07T06:15:30.271Z,4.00
2018-02-07T06:16:29.377Z,4.00
2018-02-07T06:17:29.378Z,4.00
2018-02-07T06:18:29.381Z,4.00
2018-02-07T06:19:29.332Z,4.00
2018-02-07T06:20:29.311Z,4.00
2018-02-07T06:21:29.293Z,8.00
2018-02-07T06:22:29.313Z,8.00
2018-02-07T06:23:29.309Z,12.00
2018-02-07T06:24:29.277Z,16.00
2018-02-07T06:25:29.324Z,20.00
2018-02-07T06:26:29.237Z,24.00
2018-02-07T06:27:29.226Z,28.00
2018-02-07T06:28:29.222Z,32.00
2018-02-07T06:29:29.185Z,36.00
2018-02-07T06:30:29.199Z,44.00
2018-02-07T06:31:29.162Z,52.00
2018-02-07T06:32:29.164Z,56.00
2018-02-07T06:33:29.141Z,64.00
2018-02-07T06:34:29.116Z,72.00
2018-02-07T06:35:29.126Z,76.00
2018-02-07T06:36:29.094Z,88.00
2018-02-07T06:37:29.080Z,100.00
2018-02-07T06:38:29.085Z,120.00
2018-02-07T06:39:29.071Z,136.00
2018-02-07T06:40:29.038Z,152.00
2018-02-07T06:41:29.021Z,164.00
2018-02-07T06:42:29.008Z,168.00
2018-02-07T06:43:29.011Z,184.00
2018-02-07T06:44:28.997Z,204.00
2018-02-07T06:45:28.986Z,224.00
2018-02-07T06:46:28.980Z,232.00
2018-02-07T06:47:28.963Z,236.00
2018-02-07T06:48:28.939Z,244.00
2018-02-07T06:49:28.922Z,268.00
2018-02-07T06:50:28.904Z,304.00
2018-02-07T06:51:28.887Z,340.00
2018-02-07T06:52:28.928Z,384.00
2018-02-07T06:53:28.889Z,436.00
2018-02-07T06:54:28.851Z,496.00
2018-02-07T06:55:28.842Z,552.00
2018-02-07T06:56:28.825Z,600.00
2018-02-07T06:57:28.812Z,636.00
2018-02-07T06:58:28.811Z,656.00
2018-02-07T06:59:28.786Z,672.00
2018-02-07T07:00:28.774Z,704.00
2018-02-07T07:01:28.755Z,776.00
2018-02-07T07:02:28.747Z,860.00
2018-02-07T07:03:28.734Z,936.00
2018-02-07T07:04:28.763Z,996.00
2018-02-07T07:05:28.708Z,1044.00
2018-02-07T07:06:28.699Z,1096.00
2018-02-07T07:07:28.682Z,1160.00
2018-02-07T07:08:28.671Z,1224.00
2018-02-07T07:09:28.653Z,1292.00
2018-02-07T07:10:28.642Z,1352.00
2018-02-07T07:11:28.633Z,1404.00
2018-02-07T07:12:28.613Z,1428.00
2018-02-07T07:13:28.618Z,1432.00
2018-02-07T07:14:28.591Z,1412.00
2018-02-07T07:15:28.577Z,1380.00
2018-02-07T07:16:28.604Z,1344.00
2018-02-07T07:17:28.553Z,1312.00
2018-02-07T07:18:28.538Z,1296.00
2018-02-07T07:19:28.544Z,1284.00
2018-02-07T07:20:28.512Z,1264.00
2018-02-07T07:21:28.500Z,1260.00
2018-02-07T07:22:28.486Z,1256.00
2018-02-07T07:23:28.473Z,1248.00
2018-02-07T07:24:28.461Z,1240.00
2018-02-07T07:25:28.455Z,1236.00
2018-02-07T07:26:28.435Z,1244.00
2018-02-07T07:27:28.425Z,1264.00
2018-02-07T07:28:28.409Z,1280.00
2018-02-07T07:29:28.393Z,1308.00
2018-02-07T07:30:28.385Z,1348.00
2018-02-07T07:31:28.373Z,1392.00
2018-02-07T07:32:28.363Z,1416.00
2018-02-07T07:33:28.342Z,1432.00
2018-02-07T07:34:28.331Z,1456.00
2018-02-07T07:35:28.347Z,1532.00
2018-02-07T07:36:28.309Z,1648.00
2018-02-07T07:37:28.296Z,1780.00
2018-02-07T07:38:28.278Z,1900.00
2018-02-07T07:39:28.267Z,2008.00
2018-02-07T07:40:28.255Z,2132.00
2018-02-07T07:41:28.240Z,2316.00
2018-02-07T07:42:28.235Z,2548.00
2018-02-07T07:43:28.210Z,2776.00
2018-02-07T07:44:28.206Z,2928.00
2018-02-07T07:45:28.192Z,2936.00
2018-02-07T07:46:28.181Z,2832.00
2018-02-07T07:47:28.168Z,2744.00
2018-02-07T07:48:28.157Z,2700.00
2018-02-07T07:49:28.141Z,2608.00
2018-02-07T07:50:28.131Z,2504.00
2018-02-07T07:51:28.115Z,2432.00
2018-02-07T07:52:28.104Z,2344.00
2018-02-07T07:53:28.094Z,2252.00
2018-02-07T07:54:28.075Z,2220.00
2018-02-07T07:55:28.067Z,2276.00
2018-02-07T07:56:28.056Z,2384.00
2018-02-07T07:57:28.043Z,2516.00
2018-02-07T07:58:28.031Z,2620.00
2018-02-07T07:59:28.032Z,2696.00
2018-02-07T08:00:28.709Z,2788.00
2018-02-07T08:01:28.010Z,2896.00
2018-02-07T08:02:27.981Z,2992.00
2018-02-07T08:03:27.968Z,3068.00
2018-02-07T08:04:27.958Z,3148.00
2018-02-07T08:05:27.941Z,3268.00
2018-02-07T08:06:27.942Z,3368.00
2018-02-07T08:07:27.915Z,3444.00
2018-02-07T08:08:27.909Z,3468.00
2018-02-07T08:09:27.907Z,3424.00
2018-02-07T08:10:27.886Z,3368.00
2018-02-07T08:11:27.871Z,3424.00
2018-02-07T08:12:27.859Z,3600.00
2018-02-07T08:13:27.887Z,3812.00
2018-02-07T08:14:27.833Z,4012.00
2018-02-07T08:15:27.825Z,4060.00
2018-02-07T08:16:27.844Z,3852.00
2018-02-07T08:17:27.812Z,3700.00
2018-02-07T08:18:27.825Z,3668.00
2018-02-07T08:19:27.825Z,3604.00
2018-02-07T08:20:27.765Z,3548.00
2018-02-07T08:21:27.753Z,3560.00
2018-02-07T08:22:27.746Z,3684.00
2018-02-07T08:23:27.730Z,3884.00
2018-02-07T08:24:27.734Z,4100.00
2018-02-07T08:25:27.708Z,4336.00
2018-02-07T08:26:27.694Z,4544.00
2018-02-07T08:27:27.678Z,4600.00
2018-02-07T08:28:27.670Z,4564.00
2018-02-07T08:29:27.655Z,4628.00
2018-02-07T08:30:27.647Z,4860.00
2018-02-07T08:31:27.631Z,5148.00
2018-02-07T08:32:27.623Z,5300.00
2018-02-07T08:33:27.611Z,5340.00
2018-02-07T08:34:27.590Z,5332.00
2018-02-07T08:35:27.609Z,5256.00
2018-02-07T08:36:27.577Z,5144.00
2018-02-07T08:37:27.552Z,5092.00
2018-02-07T08:38:27.557Z,4980.00
2018-02-07T08:39:27.541Z,4732.00
2018-02-07T08:40:27.530Z,4496.00
2018-02-07T08:41:27.516Z,4352.00
2018-02-07T08:42:27.506Z,4232.00
2018-02-07T08:43:27.495Z,4132.00
2018-02-07T08:44:27.481Z,4024.00
2018-02-07T08:45:27.470Z,3932.00
2018-02-07T08:46:27.457Z,3896.00
2018-02-07T08:47:27.447Z,3996.00
2018-02-07T08:48:27.456Z,4200.00
2018-02-07T08:49:27.438Z,4376.00
2018-02-07T08:50:27.411Z,4452.00
2018-02-07T08:51:27.403Z,4392.00
2018-02-07T08:52:27.389Z,4248.00
2018-02-07T08:53:27.379Z,4092.00
2018-02-07T08:54:27.366Z,3956.00
2018-02-07T08:55:27.405Z,3872.00
2018-02-07T08:56:27.339Z,3860.00
2018-02-07T08:57:27.330Z,3880.00
2018-02-07T08:58:27.324Z,3920.00
2018-02-07T08:59:27.311Z,3924.00
2018-02-07T09:00:27.296Z,3940.00
2018-02-07T09:01:27.322Z,3980.00
2018-02-07T09:02:27.272Z,3996.00
2018-02-07T09:03:27.268Z,3984.00
2018-02-07T09:04:27.263Z,3952.00
2018-02-07T09:05:27.241Z,3928.00
2018-02-07T09:06:27.231Z,3940.00
2018-02-07T09:07:27.219Z,3984.00
2018-02-07T09:08:27.209Z,4068.00
2018-02-07T09:09:27.196Z,4140.00
2018-02-07T09:10:27.186Z,4208.00
2018-02-07T09:11:27.176Z,4268.00
2018-02-07T09:12:27.160Z,4280.00
2018-02-07T09:13:27.160Z,4272.00
2018-02-07T09:14:27.147Z,4340.00
2018-02-07T09:15:27.137Z,4492.00
2018-02-07T09:16:27.115Z,4660.00
2018-02-07T09:17:27.106Z,4772.00
2018-02-07T09:18:27.091Z,4876.00
2018-02-07T09:19:27.081Z,5020.00
2018-02-07T09:20:27.068Z,5164.00
2018-02-07T09:21:27.093Z,5260.00
2018-02-07T09:22:27.045Z,5340.00
2018-02-07T09:23:27.061Z,5476.00
2018-02-07T09:24:27.029Z,5600.00
2018-02-07T09:25:27.017Z,5644.00
2018-02-07T09:26:27.007Z,5636.00
2018-02-07T09:27:26.992Z,5664.00
2018-02-07T09:28:26.977Z,5724.00
2018-02-07T09:29:26.964Z,5800.00
2018-02-07T09:30:26.955Z,5840.00
2018-02-07T09:31:26.946Z,5816.00
2018-02-07T09:32:26.935Z,5756.00
2018-02-07T09:33:26.921Z,5708.00
2018-02-07T09:34:26.915Z,5756.00
2018-02-07T09:35:26.905Z,5880.00
2018-02-07T09:36:26.886Z,5920.00
2018-02-07T09:37:26.879Z,5792.00
2018-02-07T09:38:26.869Z,5588.00
2018-02-07T09:39:26.890Z,5424.00
2018-02-07T09:40:26.844Z,5324.00
2018-02-07T09:41:26.828Z,5296.00
2018-02-07T09:42:26.821Z,5316.00
2018-02-07T09:43:26.814Z,5396.00
2018-02-07T09:44:26.805Z,5492.00
2018-02-07T09:45:26.791Z,5564.00
2018-02-07T09:46:26.776Z,5608.00
2018-02-07T09:47:26.767Z,5696.00
2018-02-07T09:48:26.757Z,5800.00
2018-02-07T09:49:26.745Z,5884.00
2018-02-07T09:50:26.736Z,5960.00
2018-02-07T09:51:26.715Z,6020.00
2018-02-07T09:52:26.712Z,6024.00
2018-02-07T09:53:26.717Z,5924.00
2018-02-07T09:54:26.696Z,5848.00
2018-02-07T09:55:26.678Z,5820.00
2018-02-07T09:56:26.665Z,5756.00
2018-02-07T09:57:26.659Z,5716.00
2018-02-07T09:58:26.645Z,5612.00
2018-02-07T09:59:26.642Z,5476.00
2018-02-07T10:00:26.627Z,5428.00
2018-02-07T10:01:26.613Z,5508.00
2018-02-07T10:02:26.601Z,5648.00
2018-02-07T10:03:26.589Z,5804.00
2018-02-07T10:04:26.584Z,5960.00
2018-02-07T10:05:26.584Z,6048.00
2018-02-07T10:06:26.560Z,6036.00
2018-02-07T10:07:26.565Z,5928.00
2018-02-07T10:08:26.535Z,5792.00
2018-02-07T10:09:26.526Z,5604.00
2018-02-07T10:10:26.517Z,5464.00
2018-02-07T10:11:26.509Z,5492.00
2018-02-07T10:12:26.496Z,5676.00
2018-02-07T10:13:26.480Z,5928.00
2018-02-07T10:14:26.472Z,6144.00
2018-02-07T10:15:27.731Z,6284.00
2018-02-07T10:16:26.454Z,6348.00
2018-02-07T10:17:26.439Z,6376.00
2018-02-07T10:18:26.432Z,6308.00
2018-02-07T10:19:26.457Z,6188.00
2018-02-07T10:20:26.410Z,6156.00
2018-02-07T10:21:26.397Z,6240.00
2018-02-07T10:22:26.388Z,6360.00
2018-02-07T10:23:26.391Z,6488.00
2018-02-07T10:24:26.424Z,6656.00
2018-02-07T10:25:26.365Z,6892.00
2018-02-07T10:26:26.358Z,7052.00
2018-02-07T10:27:26.331Z,7196.00
2018-02-07T10:28:26.321Z,7392.00
2018-02-07T10:29:26.310Z,7356.00
2018-02-07T10:30:26.293Z,6932.00
2018-02-07T10:31:26.345Z,6288.00
2018-02-07T10:32:26.282Z,5844.00
2018-02-07T10:33:26.268Z,5776.00
2018-02-07T10:34:26.272Z,5948.00
2018-02-07T10:35:26.247Z,6140.00
2018-02-07T10:36:26.238Z,6196.00
2018-02-07T10:37:26.217Z,6120.00
2018-02-07T10:38:26.215Z,6000.00
2018-02-07T10:39:26.221Z,6056.00
2018-02-07T10:40:26.196Z,6068.00
2018-02-07T10:41:26.202Z,5952.00
2018-02-07T10:42:26.172Z,5956.00
2018-02-07T10:43:26.163Z,6092.00
2018-02-07T10:44:26.156Z,6224.00
2018-02-07T10:45:26.150Z,6392.00
2018-02-07T10:46:26.129Z,6536.00
2018-02-07T10:47:26.169Z,6672.00
2018-02-07T10:48:26.106Z,6780.00
2018-02-07T10:49:26.100Z,6880.00
2018-02-07T10:50:26.079Z,7160.00
2018-02-07T10:51:26.079Z,7408.00
2018-02-07T10:52:26.064Z,7656.00
2018-02-07T10:53:26.056Z,7884.00
2018-02-07T10:54:26.047Z,7952.00
2018-02-07T10:55:26.033Z,7996.00
2018-02-07T10:56:26.024Z,8052.00
2018-02-07T10:57:26.014Z,8148.00
2018-02-07T10:58:26.042Z,8288.00
2018-02-07T10:59:25.986Z,8380.00
2018-02-07T11:00:25.984Z,8424.00
2018-02-07T11:01:25.963Z,8468.00
2018-02-07T11:02:25.964Z,8472.00
2018-02-07T11:03:25.951Z,8424.00
2018-02-07T11:04:25.939Z,8600.00
2018-02-07T11:05:25.928Z,8824.00
2018-02-07T11:06:25.919Z,8868.00
2018-02-07T11:07:25.908Z,8736.00
2018-02-07T11:08:25.891Z,8664.00
2018-02-07T11:09:25.892Z,8552.00
2018-02-07T11:10:25.895Z,8304.00
2018-02-07T11:11:25.870Z,8080.00
2018-02-07T11:12:25.859Z,7924.00
2018-02-07T11:13:25.846Z,7772.00
2018-02-07T11:14:25.843Z,7692.00
2018-02-07T11:15:25.824Z,7660.00
2018-02-07T11:16:25.815Z,7492.00
2018-02-07T11:17:25.807Z,7324.00
2018-02-07T11:18:25.802Z,7296.00
2018-02-07T11:19:25.790Z,7424.00
2018-02-07T11:20:25.778Z,7652.00
2018-02-07T11:21:25.765Z,7980.00
2018-02-07T11:22:25.757Z,8352.00
2018-02-07T11:23:25.770Z,8704.00
2018-02-07T11:24:25.741Z,8784.00
2018-02-07T11:25:25.729Z,8648.00
2018-02-07T11:26:25.722Z,8384.00
2018-02-07T11:27:25.712Z,8252.00
2018-02-07T11:28:25.707Z,8300.00
2018-02-07T11:29:25.711Z,8264.00
2018-02-07T11:30:25.680Z,8060.00
2018-02-07T11:31:25.674Z,7932.00
2018-02-07T11:32:25.664Z,7832.00
2018-02-07T11:33:25.655Z,7712.00
2018-02-07T11:34:25.656Z,7652.00
2018-02-07T11:35:25.636Z,7824.00
2018-02-07T11:36:25.629Z,8148.00
2018-02-07T11:37:25.634Z,8380.00
2018-02-07T11:38:25.608Z,8396.00
2018-02-07T11:39:25.605Z,8272.00
2018-02-07T11:40:25.595Z,8164.00
2018-02-07T11:41:25.593Z,8048.00
2018-02-07T11:42:25.575Z,7928.00
2018-02-07T11:43:25.563Z,7800.00
2018-02-07T11:44:25.563Z,7640.00
2018-02-07T11:45:25.543Z,7448.00
2018-02-07T11:46:25.532Z,7276.00
2018-02-07T11:47:25.528Z,7172.00
2018-02-07T11:48:25.523Z,7104.00
2018-02-07T11:49:25.510Z,7160.00
2018-02-07T11:50:25.501Z,7228.00
2018-02-07T11:51:25.501Z,7148.00
2018-02-07T11:52:25.487Z,7036.00
2018-02-07T11:53:25.530Z,6844.00
2018-02-07T11:54:25.465Z,6740.00
2018-02-07T11:55:25.463Z,6736.00
2018-02-07T11:56:25.448Z,6672.00
2018-02-07T11:57:25.440Z,6628.00
2018-02-07T11:58:25.433Z,6616.00
2018-02-07T11:59:25.430Z,6536.00
2018-02-07T12:00:25.416Z,6456.00
2018-02-07T12:01:25.414Z,6492.00
2018-02-07T12:02:25.397Z,6692.00
2018-02-07T12:03:25.387Z,6940.00
2018-02-07T12:04:25.377Z,7116.00
2018-02-07T12:05:25.367Z,7200.00
2018-02-07T12:06:25.360Z,7132.00
2018-02-07T12:07:25.351Z,6940.00
2018-02-07T12:08:25.336Z,6748.00
2018-02-07T12:09:25.340Z,6680.00
2018-02-07T12:10:25.327Z,6756.00
2018-02-07T12:11:25.311Z,6888.00
2018-02-07T12:12:25.307Z,6948.00
2018-02-07T12:13:25.295Z,6916.00
2018-02-07T12:14:25.289Z,6788.00
2018-02-07T12:15:25.282Z,6584.00
2018-02-07T12:16:25.267Z,6384.00
2018-02-07T12:17:25.262Z,6300.00
2018-02-07T12:18:25.258Z,6384.00
2018-02-07T12:19:25.250Z,6520.00
2018-02-07T12:20:25.232Z,6588.00
2018-02-07T12:21:25.227Z,6584.00
2018-02-07T12:22:25.215Z,6708.00
2018-02-07T12:23:25.212Z,7024.00
2018-02-07T12:24:25.203Z,7368.00
2018-02-07T12:25:25.191Z,7684.00
2018-02-07T12:26:25.181Z,7856.00
2018-02-07T12:27:25.180Z,7912.00
2018-02-07T12:28:25.181Z,8012.00
2018-02-07T12:29:25.187Z,8188.00
2018-02-07T12:30:25.145Z,8316.00
2018-02-07T12:31:25.174Z,8332.00
2018-02-07T12:32:25.135Z,8328.00
2018-02-07T12:33:25.118Z,8384.00
2018-02-07T12:34:25.114Z,8652.00
2018-02-07T12:35:25.113Z,9024.00
2018-02-07T12:36:25.108Z,9212.00
2018-02-07T12:37:25.829Z,9184.00
2018-02-07T12:38:25.085Z,9024.00
2018-02-07T12:39:25.086Z,8796.00
2018-02-07T12:40:25.070Z,8576.00
2018-02-07T12:41:25.066Z,8356.00
2018-02-07T12:42:25.054Z,8128.00